Flight Track Log - Related Links

Times and Time Zones

All times are in EDT time to prevent confusion due to time zone crossing. See the CTL18 flight status page for this flight to view local times or setup timezone preferences in your user account.

Time Position Orientation Groundspeed Altitude Reporting Facility
EDT Latitude Longitude Course Direction KTS MPH feet Rate Location/Type
Mon 07:50:00 PM 43.3334 -83.9934 160° South  Level Estimated
Mon 07:51:00 PM 43.3049 -83.9811 160° South  Level Estimated
Mon 07:52:00 PM 43.2785 -83.9618 152° Southeast  Level FlightAware Approximate
Mon 07:53:00 PM 43.2521 -83.9426 152° Southeast  Level FlightAware Approximate
Mon 07:54:00 PM 43.2235 -83.9307 163° South  Level Estimated
Mon 07:55:00 PM 43.1956 -83.9162 159° South  Level FlightAware Approximate
Mon 07:56:00 PM 43.1676 -83.9017 159° South  Level FlightAware Approximate
Mon 07:57:00 PM 43.1397 -83.8872 159° South  Level FlightAware Approximate
Mon 07:58:00 PM 43.1110 -83.8757 160° South  Level Estimated
Mon 07:58:46 PM 42.9164 -83.7669 162° South 166 191 5,000  Level Cleveland Center
Mon 07:59:00 PM 43.0830 -83.8613 159° South  Level FlightAware Approximate
Mon 07:59:47 PM 42.8731 -83.7506 165° South 170 196 5,000  Level Cleveland Center
Mon 08:00:00 PM 43.0551 -83.8469 159° South  Level FlightAware Approximate
Mon 08:00:47 PM 42.8256 -83.7369 168° South 171 197 5,000  Level Cleveland Center
Mon 08:01:00 PM 43.0271 -83.8325 159° South  Level FlightAware Approximate
Mon 08:02:00 PM 42.7930 -83.7141 165° South  Level FlightAware Approximate
Mon 08:02:00 PM 42.9991 -83.8182 159° South  Level FlightAware Approximate
Mon 08:03:03 PM 42.7200 -83.7061 165° South 170 196 5,000  Level Cleveland Center
Mon 08:03:46 PM 42.6889 -83.7017 174° South 169 194 5,100 -36 Climbing Cleveland Center
Mon 08:05:00 PM 42.6543 -83.6845 160° South  Level FlightAware Approximate
Mon 08:05:52 PM 42.5872 -83.6856 160° South 171 197 4,900  Level Cleveland Center
Mon 08:07:00 PM 42.5328 -83.6969 189° South 183 211 4,300 -517 Descending Cleveland Center
Mon 08:07:48 PM 42.4928 -83.7061 190° South 179 206 3,900 -469 Descending Cleveland Center
Mon 08:09:08 PM 42.4244 -83.6942 173° South 176 203 3,300 -356 Descending Cleveland Center
Mon 08:10:03 PM 42.3869 -83.6869 172° South 166 191 3,100 -173 Descending Cleveland Center
Mon 08:10:52 PM 42.3497 -83.6767 168° South 165 190 3,000 -55 Descending Cleveland Center
Mon 08:11:53 PM 42.3042 -83.6686 173° South 162 186 3,000 -281 Level Cleveland Center
Mon 08:13:00 PM 42.2572 -83.6328 151° Southeast 170 196 2,400 -537 Descending Cleveland Center
Mon 08:14:00 PM 42.2503 -83.5935 160° South  Level Estimated
Mon 08:21:00 PM 42.2393 -83.5310 160° South  Level Estimated
Mon 08:22:00 PM 42.2393 -83.5310 160° South  Level Estimated
Mon 08:23:00 PM 42.2393 -83.5310 160° South  Level Estimated
Mon 08:24:00 PM 42.2393 -83.5310 160° South  Level Estimated

Login

Don't have an account? Register now (free) for customized features, flight alerts, and more!